sensor_id;sensor_type;location;lat;lon;timestamp;P1;durP1;ratioP1;P2;durP2;ratioP2
63818;SDS011;49970;54.976;73.248;2024-01-07T00:02:21;265.75;;;127.93;;
63818;SDS011;49970;54.976;73.248;2024-01-07T00:04:47;284.63;;;133.55;;
63818;SDS011;49970;54.976;73.248;2024-01-07T00:07:14;247.82;;;123.63;;
63818;SDS011;49970;54.976;73.248;2024-01-07T00:09:40;259.73;;;123.03;;
63818;SDS011;49970;54.976;73.248;2024-01-07T00:12:06;238.45;;;118.20;;
63818;SDS011;49970;54.976;73.248;2024-01-07T00:14:33;258.65;;;120.13;;
63818;SDS011;49970;54.976;73.248;2024-01-07T00:16:59;226.15;;;107.80;;
63818;SDS011;49970;54.976;73.248;2024-01-07T00:19:25;217.20;;;105.97;;
63818;SDS011;49970;54.976;73.248;2024-01-07T00:21:51;206.20;;;99.65;;
63818;SDS011;49970;54.976;73.248;2024-01-07T00:24:18;189.77;;;90.85;;
63818;SDS011;49970;54.976;73.248;2024-01-07T00:26:44;197.52;;;90.10;;
63818;SDS011;49970;54.976;73.248;2024-01-07T00:29:11;179.63;;;83.75;;
63818;SDS011;49970;54.976;73.248;2024-01-07T00:31:37;156.88;;;64.45;;
63818;SDS011;49970;54.976;73.248;2024-01-07T00:34:03;130.32;;;58.15;;
63818;SDS011;49970;54.976;73.248;2024-01-07T00:36:30;113.63;;;52.80;;
63818;SDS011;49970;54.976;73.248;2024-01-07T00:38:56;109.43;;;50.15;;
63818;SDS011;49970;54.976;73.248;2024-01-07T00:41:22;103.53;;;46.05;;
63818;SDS011;49970;54.976;73.248;2024-01-07T00:43:50;109.63;;;50.92;;
63818;SDS011;49970;54.976;73.248;2024-01-07T00:46:16;108.38;;;45.95;;
63818;SDS011;49970;54.976;73.248;2024-01-07T00:48:42;100.68;;;46.13;;
63818;SDS011;49970;54.976;73.248;2024-01-07T00:51:09;101.55;;;45.40;;
63818;SDS011;49970;54.976;73.248;2024-01-07T00:53:35;124.07;;;49.95;;
63818;SDS011;49970;54.976;73.248;2024-01-07T00:56:01;107.93;;;47.22;;
63818;SDS011;49970;54.976;73.248;2024-01-07T00:58:28;115.75;;;51.03;;
63818;SDS011;49970;54.976;73.248;2024-01-07T01:00:54;112.22;;;53.05;;
63818;SDS011;49970;54.976;73.248;2024-01-07T01:03:21;118.38;;;52.92;;
63818;SDS011;49970;54.976;73.248;2024-01-07T01:05:47;128.15;;;54.58;;
63818;SDS011;49970;54.976;73.248;2024-01-07T01:08:14;122.57;;;56.78;;
63818;SDS011;49970;54.976;73.248;2024-01-07T01:10:41;135.57;;;54.78;;
63818;SDS011;49970;54.976;73.248;2024-01-07T01:13:08;122.35;;;52.42;;
63818;SDS011;49970;54.976;73.248;2024-01-07T01:15:34;118.47;;;51.88;;
63818;SDS011;49970;54.976;73.248;2024-01-07T01:18:01;119.97;;;54.95;;
63818;SDS011;49970;54.976;73.248;2024-01-07T01:20:27;120.82;;;54.30;;
63818;SDS011;49970;54.976;73.248;2024-01-07T01:22:54;115.68;;;54.22;;
63818;SDS011;49970;54.976;73.248;2024-01-07T01:25:20;110.82;;;50.47;;
63818;SDS011;49970;54.976;73.248;2024-01-07T01:27:47;122.10;;;51.78;;
63818;SDS011;49970;54.976;73.248;2024-01-07T01:30:13;105.68;;;48.80;;
63818;SDS011;49970;54.976;73.248;2024-01-07T01:32:39;107.60;;;48.03;;
63818;SDS011;49970;54.976;73.248;2024-01-07T01:35:06;113.90;;;49.92;;
63818;SDS011;49970;54.976;73.248;2024-01-07T01:37:32;118.75;;;50.80;;
63818;SDS011;49970;54.976;73.248;2024-01-07T01:39:59;122.78;;;48.35;;
63818;SDS011;49970;54.976;73.248;2024-01-07T01:42:25;112.55;;;52.80;;
63818;SDS011;49970;54.976;73.248;2024-01-07T01:44:51;110.10;;;51.63;;
63818;SDS011;49970;54.976;73.248;2024-01-07T01:47:23;112.47;;;50.53;;
63818;SDS011;49970;54.976;73.248;2024-01-07T01:49:49;112.35;;;50.53;;
63818;SDS011;49970;54.976;73.248;2024-01-07T01:52:16;105.35;;;49.67;;
63818;SDS011;49970;54.976;73.248;2024-01-07T01:54:42;96.72;;;47.63;;
63818;SDS011;49970;54.976;73.248;2024-01-07T01:57:28;102.35;;;47.88;;
63818;SDS011;49970;54.976;73.248;2024-01-07T01:59:59;96.22;;;45.58;;
63818;SDS011;49970;54.976;73.248;2024-01-07T02:02:31;93.50;;;43.50;;
63818;SDS011;49970;54.976;73.248;2024-01-07T02:05:03;79.65;;;40.65;;
63818;SDS011;49970;54.976;73.248;2024-01-07T02:07:30;87.10;;;40.42;;
63818;SDS011;49970;54.976;73.248;2024-01-07T02:09:57;106.85;;;52.20;;
63818;SDS011;49970;54.976;73.248;2024-01-07T02:12:23;126.68;;;55.92;;
63818;SDS011;49970;54.976;73.248;2024-01-07T02:15:55;139.05;;;61.08;;
63818;SDS011;49970;54.976;73.248;2024-01-07T02:19:51;159.32;;;71.00;;
63818;SDS011;49970;54.976;73.248;2024-01-07T02:22:17;150.77;;;68.93;;
63818;SDS011;49970;54.976;73.248;2024-01-07T02:24:44;149.48;;;69.95;;
63818;SDS011;49970;54.976;73.248;2024-01-07T02:27:11;148.10;;;69.13;;
63818;SDS011;49970;54.976;73.248;2024-01-07T02:30:43;160.38;;;75.47;;
63818;SDS011;49970;54.976;73.248;2024-01-07T02:34:14;187.23;;;83.78;;
63818;SDS011;49970;54.976;73.248;2024-01-07T02:37:43;175.48;;;86.40;;
63818;SDS011;49970;54.976;73.248;2024-01-07T02:41:14;173.25;;;84.30;;
63818;SDS011;49970;54.976;73.248;2024-01-07T02:44:45;150.52;;;72.93;;
63818;SDS011;49970;54.976;73.248;2024-01-07T02:48:16;135.25;;;62.88;;
63818;SDS011;49970;54.976;73.248;2024-01-07T02:51:47;142.75;;;66.72;;
63818;SDS011;49970;54.976;73.248;2024-01-07T02:55:18;142.05;;;63.97;;
63818;SDS011;49970;54.976;73.248;2024-01-07T02:58:04;128.77;;;58.33;;
63818;SDS011;49970;54.976;73.248;2024-01-07T03:00:30;127.45;;;55.55;;
63818;SDS011;49970;54.976;73.248;2024-01-07T03:02:57;129.25;;;55.80;;
63818;SDS011;49970;54.976;73.248;2024-01-07T03:05:23;117.38;;;56.08;;
63818;SDS011;49970;54.976;73.248;2024-01-07T03:07:49;117.82;;;55.08;;
63818;SDS011;49970;54.976;73.248;2024-01-07T03:10:15;114.72;;;52.15;;
63818;SDS011;49970;54.976;73.248;2024-01-07T03:12:42;98.00;;;45.53;;
63818;SDS011;49970;54.976;73.248;2024-01-07T03:15:08;89.63;;;43.92;;
63818;SDS011;49970;54.976;73.248;2024-01-07T03:17:34;93.18;;;43.38;;
63818;SDS011;49970;54.976;73.248;2024-01-07T03:20:01;125.03;;;55.75;;
63818;SDS011;49970;54.976;73.248;2024-01-07T03:22:27;133.05;;;58.80;;
63818;SDS011;49970;54.976;73.248;2024-01-07T03:24:54;98.82;;;49.55;;
63818;SDS011;49970;54.976;73.248;2024-01-07T03:27:20;116.00;;;50.40;;
63818;SDS011;49970;54.976;73.248;2024-01-07T03:29:46;119.63;;;55.92;;
63818;SDS011;49970;54.976;73.248;2024-01-07T03:32:12;123.90;;;57.67;;
63818;SDS011;49970;54.976;73.248;2024-01-07T03:34:46;132.77;;;61.67;;
63818;SDS011;49970;54.976;73.248;2024-01-07T03:37:12;136.52;;;63.85;;
63818;SDS011;49970;54.976;73.248;2024-01-07T03:39:38;147.57;;;69.50;;
63818;SDS011;49970;54.976;73.248;2024-01-07T03:42:05;143.85;;;66.95;;
63818;SDS011;49970;54.976;73.248;2024-01-07T03:44:39;144.30;;;65.88;;
63818;SDS011;49970;54.976;73.248;2024-01-07T03:47:06;161.50;;;77.15;;
63818;SDS011;49970;54.976;73.248;2024-01-07T03:49:32;174.93;;;85.00;;
63818;SDS011;49970;54.976;73.248;2024-01-07T03:51:58;176.55;;;86.85;;
63818;SDS011;49970;54.976;73.248;2024-01-07T03:54:25;177.32;;;84.93;;
63818;SDS011;49970;54.976;73.248;2024-01-07T03:57:11;183.13;;;93.63;;
63818;SDS011;49970;54.976;73.248;2024-01-07T04:01:06;191.23;;;95.00;;
63818;SDS011;49970;54.976;73.248;2024-01-07T04:03:32;190.45;;;96.38;;
63818;SDS011;49970;54.976;73.248;2024-01-07T04:05:59;192.00;;;95.55;;
63818;SDS011;49970;54.976;73.248;2024-01-07T04:08:25;165.55;;;79.90;;
63818;SDS011;49970;54.976;73.248;2024-01-07T04:10:52;142.52;;;69.45;;
63818;SDS011;49970;54.976;73.248;2024-01-07T04:13:18;139.80;;;68.95;;
63818;SDS011;49970;54.976;73.248;2024-01-07T04:15:44;130.15;;;61.10;;
63818;SDS011;49970;54.976;73.248;2024-01-07T04:18:11;124.55;;;55.65;;
63818;SDS011;49970;54.976;73.248;2024-01-07T04:20:37;118.88;;;55.90;;
63818;SDS011;49970;54.976;73.248;2024-01-07T04:23:03;122.68;;;57.55;;
63818;SDS011;49970;54.976;73.248;2024-01-07T04:25:30;144.13;;;64.95;;
63818;SDS011;49970;54.976;73.248;2024-01-07T04:27:56;145.48;;;66.20;;
63818;SDS011;49970;54.976;73.248;2024-01-07T04:30:22;146.80;;;66.13;;
63818;SDS011;49970;54.976;73.248;2024-01-07T04:32:48;156.65;;;66.38;;
63818;SDS011;49970;54.976;73.248;2024-01-07T04:35:14;154.45;;;68.53;;
63818;SDS011;49970;54.976;73.248;2024-01-07T04:37:41;142.93;;;68.97;;
63818;SDS011;49970;54.976;73.248;2024-01-07T04:40:08;146.90;;;67.47;;
63818;SDS011;49970;54.976;73.248;2024-01-07T04:42:34;168.88;;;79.22;;
63818;SDS011;49970;54.976;73.248;2024-01-07T04:45:01;178.05;;;82.82;;
63818;SDS011;49970;54.976;73.248;2024-01-07T04:47:31;180.43;;;85.65;;
63818;SDS011;49970;54.976;73.248;2024-01-07T04:49:59;199.75;;;86.35;;
63818;SDS011;49970;54.976;73.248;2024-01-07T04:52:26;185.45;;;82.43;;
63818;SDS011;49970;54.976;73.248;2024-01-07T04:54:53;177.38;;;81.75;;
63818;SDS011;49970;54.976;73.248;2024-01-07T04:57:20;175.73;;;81.93;;
63818;SDS011;49970;54.976;73.248;2024-01-07T05:01:15;185.98;;;83.00;;
63818;SDS011;49970;54.976;73.248;2024-01-07T05:04:45;178.70;;;78.38;;
63818;SDS011;49970;54.976;73.248;2024-01-07T05:07:19;167.10;;;77.25;;
63818;SDS011;49970;54.976;73.248;2024-01-07T05:09:45;167.77;;;84.78;;
63818;SDS011;49970;54.976;73.248;2024-01-07T05:17:51;137.67;;;63.70;;
63818;SDS011;49970;54.976;73.248;2024-01-07T05:21:20;126.25;;;59.22;;
63818;SDS011;49970;54.976;73.248;2024-01-07T05:24:01;139.77;;;62.00;;
63818;SDS011;49970;54.976;73.248;2024-01-07T05:26:27;141.48;;;65.00;;
63818;SDS011;49970;54.976;73.248;2024-01-07T05:28:53;138.65;;;61.78;;
63818;SDS011;49970;54.976;73.248;2024-01-07T05:31:20;142.18;;;63.03;;
63818;SDS011;49970;54.976;73.248;2024-01-07T05:33:46;148.45;;;62.25;;
63818;SDS011;49970;54.976;73.248;2024-01-07T05:36:12;159.60;;;66.70;;
63818;SDS011;49970;54.976;73.248;2024-01-07T05:38:41;157.43;;;68.75;;
63818;SDS011;49970;54.976;73.248;2024-01-07T05:41:07;137.25;;;61.15;;
63818;SDS011;49970;54.976;73.248;2024-01-07T05:46:03;130.00;;;57.92;;
63818;SDS011;49970;54.976;73.248;2024-01-07T05:48:29;118.20;;;56.40;;
63818;SDS011;49970;54.976;73.248;2024-01-07T05:50:55;115.72;;;51.10;;
63818;SDS011;49970;54.976;73.248;2024-01-07T05:53:21;116.25;;;48.35;;
63818;SDS011;49970;54.976;73.248;2024-01-07T05:55:48;113.88;;;51.17;;
63818;SDS011;49970;54.976;73.248;2024-01-07T05:58:14;113.00;;;49.72;;
63818;SDS011;49970;54.976;73.248;2024-01-07T06:00:40;138.85;;;56.78;;
63818;SDS011;49970;54.976;73.248;2024-01-07T06:03:06;131.65;;;54.10;;
63818;SDS011;49970;54.976;73.248;2024-01-07T06:05:37;131.77;;;55.70;;
63818;SDS011;49970;54.976;73.248;2024-01-07T06:08:04;146.52;;;60.80;;
63818;SDS011;49970;54.976;73.248;2024-01-07T06:10:31;146.50;;;61.22;;
63818;SDS011;49970;54.976;73.248;2024-01-07T06:12:58;142.38;;;60.25;;
63818;SDS011;49970;54.976;73.248;2024-01-07T06:15:24;137.70;;;58.70;;
63818;SDS011;49970;54.976;73.248;2024-01-07T06:17:50;132.55;;;59.78;;
63818;SDS011;49970;54.976;73.248;2024-01-07T06:20:17;134.30;;;61.17;;
63818;SDS011;49970;54.976;73.248;2024-01-07T06:22:43;128.50;;;58.15;;
63818;SDS011;49970;54.976;73.248;2024-01-07T06:25:10;141.23;;;61.80;;
63818;SDS011;49970;54.976;73.248;2024-01-07T06:27:36;150.27;;;67.28;;
63818;SDS011;49970;54.976;73.248;2024-01-07T06:30:04;175.43;;;73.05;;
63818;SDS011;49970;54.976;73.248;2024-01-07T06:32:31;170.52;;;68.78;;
63818;SDS011;49970;54.976;73.248;2024-01-07T06:34:58;191.18;;;68.80;;
63818;SDS011;49970;54.976;73.248;2024-01-07T06:37:24;188.80;;;75.50;;
63818;SDS011;49970;54.976;73.248;2024-01-07T06:39:51;214.05;;;81.88;;
63818;SDS011;49970;54.976;73.248;2024-01-07T06:42:18;218.13;;;83.50;;
63818;SDS011;49970;54.976;73.248;2024-01-07T06:44:44;176.82;;;75.75;;
63818;SDS011;49970;54.976;73.248;2024-01-07T06:47:10;169.38;;;66.28;;
63818;SDS011;49970;54.976;73.248;2024-01-07T06:50:12;169.57;;;63.75;;
63818;SDS011;49970;54.976;73.248;2024-01-07T06:52:38;153.68;;;61.20;;
63818;SDS011;49970;54.976;73.248;2024-01-07T06:55:04;145.23;;;61.92;;
63818;SDS011;49970;54.976;73.248;2024-01-07T06:57:31;140.23;;;59.80;;
63818;SDS011;49970;54.976;73.248;2024-01-07T06:59:57;147.02;;;61.22;;
63818;SDS011;49970;54.976;73.248;2024-01-07T07:02:23;120.75;;;54.78;;
63818;SDS011;49970;54.976;73.248;2024-01-07T07:04:50;113.28;;;51.15;;
63818;SDS011;49970;54.976;73.248;2024-01-07T07:07:17;91.22;;;44.03;;
63818;SDS011;49970;54.976;73.248;2024-01-07T07:09:43;87.18;;;40.83;;
63818;SDS011;49970;54.976;73.248;2024-01-07T07:12:10;96.80;;;42.15;;
63818;SDS011;49970;54.976;73.248;2024-01-07T07:14:38;94.07;;;46.08;;
63818;SDS011;49970;54.976;73.248;2024-01-07T07:17:04;102.70;;;45.40;;
63818;SDS011;49970;54.976;73.248;2024-01-07T07:19:30;105.60;;;46.28;;
63818;SDS011;49970;54.976;73.248;2024-01-07T07:21:57;123.05;;;48.75;;
63818;SDS011;49970;54.976;73.248;2024-01-07T07:24:23;103.30;;;47.85;;
63818;SDS011;49970;54.976;73.248;2024-01-07T07:26:49;96.95;;;44.78;;
63818;SDS011;49970;54.976;73.248;2024-01-07T07:29:15;93.53;;;41.08;;
63818;SDS011;49970;54.976;73.248;2024-01-07T07:31:42;109.97;;;46.53;;
63818;SDS011;49970;54.976;73.248;2024-01-07T07:34:08;107.40;;;46.72;;
63818;SDS011;49970;54.976;73.248;2024-01-07T07:36:35;113.05;;;45.03;;
63818;SDS011;49970;54.976;73.248;2024-01-07T07:39:01;106.03;;;44.97;;
63818;SDS011;49970;54.976;73.248;2024-01-07T07:41:28;105.45;;;40.80;;
63818;SDS011;49970;54.976;73.248;2024-01-07T07:43:54;99.93;;;40.65;;
63818;SDS011;49970;54.976;73.248;2024-01-07T07:46:20;96.20;;;41.70;;
63818;SDS011;49970;54.976;73.248;2024-01-07T07:48:46;98.28;;;39.10;;
63818;SDS011;49970;54.976;73.248;2024-01-07T07:51:13;84.65;;;36.10;;
63818;SDS011;49970;54.976;73.248;2024-01-07T07:53:39;74.57;;;33.22;;
63818;SDS011;49970;54.976;73.248;2024-01-07T07:56:06;79.70;;;33.78;;
63818;SDS011;49970;54.976;73.248;2024-01-07T07:58:34;78.18;;;35.60;;
63818;SDS011;49970;54.976;73.248;2024-01-07T08:01:00;84.32;;;32.50;;
63818;SDS011;49970;54.976;73.248;2024-01-07T08:03:26;84.32;;;34.58;;
63818;SDS011;49970;54.976;73.248;2024-01-07T08:05:52;80.70;;;36.10;;
63818;SDS011;49970;54.976;73.248;2024-01-07T08:08:19;86.30;;;33.55;;
63818;SDS011;49970;54.976;73.248;2024-01-07T08:10:45;65.47;;;31.05;;
63818;SDS011;49970;54.976;73.248;2024-01-07T08:13:12;78.25;;;34.95;;
63818;SDS011;49970;54.976;73.248;2024-01-07T08:15:38;83.22;;;34.83;;
63818;SDS011;49970;54.976;73.248;2024-01-07T08:18:04;96.18;;;39.58;;
63818;SDS011;49970;54.976;73.248;2024-01-07T08:20:31;78.70;;;37.25;;
63818;SDS011;49970;54.976;73.248;2024-01-07T08:22:57;81.70;;;35.97;;
63818;SDS011;49970;54.976;73.248;2024-01-07T08:25:24;86.78;;;40.42;;
63818;SDS011;49970;54.976;73.248;2024-01-07T08:27:50;86.40;;;42.83;;
63818;SDS011;49970;54.976;73.248;2024-01-07T08:30:17;104.50;;;47.92;;
63818;SDS011;49970;54.976;73.248;2024-01-07T08:32:43;114.53;;;49.90;;
63818;SDS011;49970;54.976;73.248;2024-01-07T08:36:14;138.52;;;58.60;;
63818;SDS011;49970;54.976;73.248;2024-01-07T08:39:45;141.40;;;61.95;;
63818;SDS011;49970;54.976;73.248;2024-01-07T08:43:16;137.38;;;54.83;;
63818;SDS011;49970;54.976;73.248;2024-01-07T08:49:40;102.45;;;43.97;;
63818;SDS011;49970;54.976;73.248;2024-01-07T08:52:06;84.30;;;39.00;;
63818;SDS011;49970;54.976;73.248;2024-01-07T08:54:32;79.15;;;37.67;;
63818;SDS011;49970;54.976;73.248;2024-01-07T08:58:28;87.43;;;34.70;;
63818;SDS011;49970;54.976;73.248;2024-01-07T09:00:54;82.10;;;34.05;;
63818;SDS011;49970;54.976;73.248;2024-01-07T09:03:21;91.85;;;33.08;;
63818;SDS011;49970;54.976;73.248;2024-01-07T09:06:51;83.05;;;33.35;;
63818;SDS011;49970;54.976;73.248;2024-01-07T09:09:21;72.53;;;30.00;;
63818;SDS011;49970;54.976;73.248;2024-01-07T09:11:52;57.35;;;27.67;;
63818;SDS011;49970;54.976;73.248;2024-01-07T09:14:25;59.58;;;29.02;;
63818;SDS011;49970;54.976;73.248;2024-01-07T09:16:56;84.57;;;32.58;;
63818;SDS011;49970;54.976;73.248;2024-01-07T09:19:29;70.78;;;32.70;;
63818;SDS011;49970;54.976;73.248;2024-01-07T09:21:59;69.50;;;32.22;;
63818;SDS011;49970;54.976;73.248;2024-01-07T09:24:29;76.72;;;35.20;;
63818;SDS011;49970;54.976;73.248;2024-01-07T09:26:59;98.72;;;35.13;;
63818;SDS011;49970;54.976;73.248;2024-01-07T09:32:02;83.82;;;32.33;;
63818;SDS011;49970;54.976;73.248;2024-01-07T09:34:31;81.55;;;33.10;;
63818;SDS011;49970;54.976;73.248;2024-01-07T09:37:07;82.82;;;32.65;;
63818;SDS011;49970;54.976;73.248;2024-01-07T09:39:40;76.25;;;32.35;;
63818;SDS011;49970;54.976;73.248;2024-01-07T09:42:14;59.75;;;28.35;;
63818;SDS011;49970;54.976;73.248;2024-01-07T09:44:46;65.20;;;31.25;;
63818;SDS011;49970;54.976;73.248;2024-01-07T09:47:21;74.97;;;31.48;;
63818;SDS011;49970;54.976;73.248;2024-01-07T09:49:52;68.30;;;29.40;;
63818;SDS011;49970;54.976;73.248;2024-01-07T09:52:24;71.55;;;28.73;;
63818;SDS011;49970;54.976;73.248;2024-01-07T09:55:03;80.07;;;29.23;;
63818;SDS011;49970;54.976;73.248;2024-01-07T09:57:34;63.60;;;27.60;;
63818;SDS011;49970;54.976;73.248;2024-01-07T10:00:08;58.97;;;24.52;;
63818;SDS011;49970;54.976;73.248;2024-01-07T10:03:39;55.20;;;26.17;;
63818;SDS011;49970;54.976;73.248;2024-01-07T10:07:10;58.47;;;25.90;;
63818;SDS011;49970;54.976;73.248;2024-01-07T10:10:41;64.53;;;27.30;;
63818;SDS011;49970;54.976;73.248;2024-01-07T10:13:12;63.67;;;26.88;;
63818;SDS011;49970;54.976;73.248;2024-01-07T10:15:43;73.18;;;27.15;;
63818;SDS011;49970;54.976;73.248;2024-01-07T10:18:14;70.03;;;27.20;;
63818;SDS011;49970;54.976;73.248;2024-01-07T10:20:45;64.05;;;28.58;;
63818;SDS011;49970;54.976;73.248;2024-01-07T10:23:19;72.32;;;27.30;;
63818;SDS011;49970;54.976;73.248;2024-01-07T10:25:50;77.05;;;30.45;;
63818;SDS011;49970;54.976;73.248;2024-01-07T10:28:24;74.78;;;28.35;;
63818;SDS011;49970;54.976;73.248;2024-01-07T10:30:57;67.22;;;28.35;;
63818;SDS011;49970;54.976;73.248;2024-01-07T10:33:30;71.75;;;30.00;;
63818;SDS011;49970;54.976;73.248;2024-01-07T10:36:03;61.50;;;29.63;;
63818;SDS011;49970;54.976;73.248;2024-01-07T10:38:33;63.05;;;28.02;;
63818;SDS011;49970;54.976;73.248;2024-01-07T10:41:04;64.70;;;29.58;;
63818;SDS011;49970;54.976;73.248;2024-01-07T10:43:39;60.85;;;27.10;;
63818;SDS011;49970;54.976;73.248;2024-01-07T10:46:09;66.60;;;28.38;;
63818;SDS011;49970;54.976;73.248;2024-01-07T10:49:40;57.15;;;28.73;;
63818;SDS011;49970;54.976;73.248;2024-01-07T10:52:10;68.82;;;30.10;;
63818;SDS011;49970;54.976;73.248;2024-01-07T10:54:37;74.35;;;31.88;;
63818;SDS011;49970;54.976;73.248;2024-01-07T10:57:17;91.38;;;32.97;;
63818;SDS011;49970;54.976;73.248;2024-01-07T11:02:32;90.10;;;31.52;;
63818;SDS011;49970;54.976;73.248;2024-01-07T11:08:05;78.07;;;32.80;;
63818;SDS011;49970;54.976;73.248;2024-01-07T11:10:39;73.13;;;30.52;;
63818;SDS011;49970;54.976;73.248;2024-01-07T11:13:09;65.00;;;31.10;;
63818;SDS011;49970;54.976;73.248;2024-01-07T11:18:19;64.35;;;29.73;;
63818;SDS011;49970;54.976;73.248;2024-01-07T11:20:46;77.45;;;32.25;;
63818;SDS011;49970;54.976;73.248;2024-01-07T11:23:32;73.40;;;32.10;;
63818;SDS011;49970;54.976;73.248;2024-01-07T11:26:02;75.55;;;33.30;;
63818;SDS011;49970;54.976;73.248;2024-01-07T11:31:16;85.22;;;35.33;;
63818;SDS011;49970;54.976;73.248;2024-01-07T11:33:48;88.07;;;36.83;;
63818;SDS011;49970;54.976;73.248;2024-01-07T11:36:16;82.05;;;36.05;;
63818;SDS011;49970;54.976;73.248;2024-01-07T11:38:44;83.85;;;35.65;;
63818;SDS011;49970;54.976;73.248;2024-01-07T11:41:14;96.53;;;37.75;;
63818;SDS011;49970;54.976;73.248;2024-01-07T11:46:21;80.07;;;34.53;;
63818;SDS011;49970;54.976;73.248;2024-01-07T11:48:49;84.78;;;35.92;;
63818;SDS011;49970;54.976;73.248;2024-01-07T11:51:18;85.78;;;37.63;;
63818;SDS011;49970;54.976;73.248;2024-01-07T11:53:49;88.75;;;40.20;;
63818;SDS011;49970;54.976;73.248;2024-01-07T11:56:15;89.20;;;37.38;;
63818;SDS011;49970;54.976;73.248;2024-01-07T11:58:42;82.97;;;36.03;;
63818;SDS011;49970;54.976;73.248;2024-01-07T12:01:08;81.47;;;36.85;;
63818;SDS011;49970;54.976;73.248;2024-01-07T12:03:35;88.07;;;38.25;;
63818;SDS011;49970;54.976;73.248;2024-01-07T12:06:01;91.75;;;39.70;;
63818;SDS011;49970;54.976;73.248;2024-01-07T12:08:29;80.07;;;37.45;;
63818;SDS011;49970;54.976;73.248;2024-01-07T12:10:56;82.05;;;37.05;;
63818;SDS011;49970;54.976;73.248;2024-01-07T12:13:22;94.63;;;39.92;;
63818;SDS011;49970;54.976;73.248;2024-01-07T12:15:50;83.25;;;37.83;;
63818;SDS011;49970;54.976;73.248;2024-01-07T12:18:16;74.80;;;35.00;;
63818;SDS011;49970;54.976;73.248;2024-01-07T12:21:02;88.10;;;34.88;;
63818;SDS011;49970;54.976;73.248;2024-01-07T12:23:29;76.25;;;35.33;;
63818;SDS011;49970;54.976;73.248;2024-01-07T12:26:09;75.13;;;33.83;;
63818;SDS011;49970;54.976;73.248;2024-01-07T12:28:51;74.80;;;34.40;;
63818;SDS011;49970;54.976;73.248;2024-01-07T12:31:19;94.13;;;41.45;;
63818;SDS011;49970;54.976;73.248;2024-01-07T12:33:46;77.68;;;35.47;;
63818;SDS011;49970;54.976;73.248;2024-01-07T12:36:13;84.63;;;39.55;;
63818;SDS011;49970;54.976;73.248;2024-01-07T12:38:46;84.20;;;34.70;;
63818;SDS011;49970;54.976;73.248;2024-01-07T12:41:13;85.13;;;34.30;;
63818;SDS011;49970;54.976;73.248;2024-01-07T12:43:40;87.45;;;36.97;;
63818;SDS011;49970;54.976;73.248;2024-01-07T12:46:06;83.65;;;34.80;;
63818;SDS011;49970;54.976;73.248;2024-01-07T12:48:33;93.88;;;36.28;;
63818;SDS011;49970;54.976;73.248;2024-01-07T12:50:59;102.28;;;36.92;;
63818;SDS011;49970;54.976;73.248;2024-01-07T12:53:27;82.47;;;34.10;;
63818;SDS011;49970;54.976;73.248;2024-01-07T12:55:54;89.22;;;37.80;;
63818;SDS011;49970;54.976;73.248;2024-01-07T12:58:34;80.10;;;35.33;;
63818;SDS011;49970;54.976;73.248;2024-01-07T13:01:01;79.05;;;35.58;;
63818;SDS011;49970;54.976;73.248;2024-01-07T13:03:27;82.75;;;38.55;;
63818;SDS011;49970;54.976;73.248;2024-01-07T13:05:54;96.75;;;35.90;;
63818;SDS011;49970;54.976;73.248;2024-01-07T13:08:20;80.72;;;34.97;;
63818;SDS011;49970;54.976;73.248;2024-01-07T13:10:51;92.32;;;36.83;;
63818;SDS011;49970;54.976;73.248;2024-01-07T13:13:19;88.88;;;34.33;;
63818;SDS011;49970;54.976;73.248;2024-01-07T13:15:46;71.65;;;33.90;;
63818;SDS011;49970;54.976;73.248;2024-01-07T13:18:12;81.00;;;34.22;;
63818;SDS011;49970;54.976;73.248;2024-01-07T13:20:39;78.20;;;35.08;;
63818;SDS011;49970;54.976;73.248;2024-01-07T13:23:19;79.18;;;33.47;;
63818;SDS011;49970;54.976;73.248;2024-01-07T13:25:45;84.82;;;34.05;;
63818;SDS011;49970;54.976;73.248;2024-01-07T13:28:22;85.35;;;34.47;;
63818;SDS011;49970;54.976;73.248;2024-01-07T13:30:48;83.13;;;35.78;;
63818;SDS011;49970;54.976;73.248;2024-01-07T13:33:15;85.85;;;34.95;;
63818;SDS011;49970;54.976;73.248;2024-01-07T13:35:43;88.75;;;38.10;;
63818;SDS011;49970;54.976;73.248;2024-01-07T13:38:09;87.18;;;36.63;;
63818;SDS011;49970;54.976;73.248;2024-01-07T13:40:36;83.25;;;35.83;;
63818;SDS011;49970;54.976;73.248;2024-01-07T13:43:02;107.53;;;37.65;;
63818;SDS011;49970;54.976;73.248;2024-01-07T13:45:29;84.55;;;36.95;;
63818;SDS011;49970;54.976;73.248;2024-01-07T13:47:55;86.65;;;36.50;;
63818;SDS011;49970;54.976;73.248;2024-01-07T13:50:22;90.05;;;37.05;;
63818;SDS011;49970;54.976;73.248;2024-01-07T13:52:57;114.25;;;39.50;;
63818;SDS011;49970;54.976;73.248;2024-01-07T13:55:23;104.38;;;38.97;;
63818;SDS011;49970;54.976;73.248;2024-01-07T13:57:49;94.70;;;37.78;;
63818;SDS011;49970;54.976;73.248;2024-01-07T14:00:15;91.28;;;39.92;;
63818;SDS011;49970;54.976;73.248;2024-01-07T14:02:44;107.80;;;39.47;;
63818;SDS011;49970;54.976;73.248;2024-01-07T14:05:15;103.28;;;37.55;;
63818;SDS011;49970;54.976;73.248;2024-01-07T14:07:41;98.78;;;38.50;;
63818;SDS011;49970;54.976;73.248;2024-01-07T14:10:07;102.20;;;38.05;;
63818;SDS011;49970;54.976;73.248;2024-01-07T14:13:38;99.90;;;40.38;;
63818;SDS011;49970;54.976;73.248;2024-01-07T14:21:40;105.57;;;45.63;;
63818;SDS011;49970;54.976;73.248;2024-01-07T14:24:06;107.43;;;44.75;;
63818;SDS011;49970;54.976;73.248;2024-01-07T14:26:33;122.43;;;48.40;;
63818;SDS011;49970;54.976;73.248;2024-01-07T14:28:59;125.03;;;50.47;;
63818;SDS011;49970;54.976;73.248;2024-01-07T14:31:26;142.80;;;53.20;;
63818;SDS011;49970;54.976;73.248;2024-01-07T14:33:52;124.53;;;50.13;;
63818;SDS011;49970;54.976;73.248;2024-01-07T14:36:19;127.28;;;51.72;;
63818;SDS011;49970;54.976;73.248;2024-01-07T14:38:45;133.40;;;50.05;;
63818;SDS011;49970;54.976;73.248;2024-01-07T14:41:15;117.82;;;50.03;;
63818;SDS011;49970;54.976;73.248;2024-01-07T14:43:41;133.45;;;52.63;;
63818;SDS011;49970;54.976;73.248;2024-01-07T14:46:08;139.70;;;54.38;;
63818;SDS011;49970;54.976;73.248;2024-01-07T14:48:34;144.02;;;49.58;;
63818;SDS011;49970;54.976;73.248;2024-01-07T14:51:01;135.07;;;53.72;;
63818;SDS011;49970;54.976;73.248;2024-01-07T14:53:28;169.52;;;58.40;;
63818;SDS011;49970;54.976;73.248;2024-01-07T14:55:55;155.40;;;61.08;;
63818;SDS011;49970;54.976;73.248;2024-01-07T14:58:24;127.47;;;54.00;;
63818;SDS011;49970;54.976;73.248;2024-01-07T15:00:50;146.55;;;51.92;;
63818;SDS011;49970;54.976;73.248;2024-01-07T15:03:22;121.35;;;47.75;;
63818;SDS011;49970;54.976;73.248;2024-01-07T15:05:52;140.63;;;48.58;;
63818;SDS011;49970;54.976;73.248;2024-01-07T15:08:18;184.57;;;51.55;;